LFPBLFOH

Guest
Details From LFPB - Paris Le Bourget
To LFOH - Le Havre-Octeville
Flight Number -
Tags decoded
Created
Modified
Stats Distance 107 nm / 198 km
Max Altitude 0 ft / 0 m
Waypoints 5
Social Downloads 2
Likes 0
Share VATSIM

Download

Looking for another format? Having issues loading an existing format? Contact us
Advertisement - Login to hide

Notes

Requested: LFPB BGW 7622 LHO LFOH

Route

LFPB BGW 7622 LHO LFOH

ID Type Via Altitude Latitude Longitude Leg Dist Tot Dist Heading (true) Name
O LFPB APT - 0 ft / 0 m 48.96431˚ 2.43556˚ - 0 nm - Paris Le Bourget
BGW NDB - 0 ft / 0 m 48.93906˚ 2.28089˚ 6 nm 6 nm 256° / 256° LE BOURGET (PARIS) NDB
7622 APT - 0 ft / 0 m 49.63824˚ 0.72918˚ 73 nm 80 nm 305° / 304° Yvetot
LHO NDB - 0 ft / 0 m 49.59722˚ 0.18111˚ 21 nm 101 nm 264° / 263° Le Havre Octeville NDB
O LFOH APT - 0 ft / 0 m 49.53408˚ 0.08846˚ 5 nm 106 nm 224° / 224° Le Havre-Octeville

Altitude Profile

Advertisement - Login to hide

LFPB

Details ICAO LFPB (LBG)
Name Paris Le Bourget
Region France
Timezone Europe/Paris (UTC+1.0)
Stats Elevation 218 ft / 66 m (AMSL)
Location 48.964314° 2.435563°
Runways 3
Magnetic Variation 0.605° E

METAR

LFPB 120430Z AUTO 26003KT CAVOK 01/M00 Q1005 NOSIG

Decode

TAF

TAF TAF LFPB 112300Z 1200/1224 27010KT 9999 SCT015 SCT025 BKN040 TEMPO 1200/1201 -RA BKN013 BECMG 1201/1203 CAVOK BECMG 1223/1224 BKN012

Decode

Departure Runways

ID Width Length Bearing (true) Bearing (mag) Surface Threshold Offset Overrun Length
03 197 ft / 60 m 8,752 ft / 2,668 m 24.59° 23.99° Asphalt 0 ft / 0 m 0 ft / 0 m
07 180 ft / 55 m 9,853 ft / 3,003 m 67.59° 66.99° Concrete 984 ft / 300 m 0 ft / 0 m
09 148 ft / 45 m 6,059 ft / 1,847 m 85.09° 84.49° Asphalt 0 ft / 0 m 0 ft / 0 m
21 197 ft / 60 m 8,752 ft / 2,668 m 204.61° 204.01° Asphalt 0 ft / 0 m 0 ft / 0 m
25 180 ft / 55 m 9,853 ft / 3,003 m 247.61° 247.01° Concrete 2,956 ft / 901 m 0 ft / 0 m
27 148 ft / 45 m 6,059 ft / 1,847 m 265.11° 264.51° Asphalt 0 ft / 0 m 1,050 ft / 320 m

LFOH

Details ICAO LFOH (LEH)
Name Le Havre-Octeville
Region France
Timezone Europe/Paris (UTC+1.0)
Stats Elevation 311 ft / 95 m (AMSL)
Location 49.534079° 0.088457°
Runways 1
Magnetic Variation 0.179° W

METAR

LFOH 120430Z AUTO 31012KT 270V330 9999 BKN027 OVC036 05/00 Q1005

Decode

TAF

TAF TAF LFOH 111858Z 1118/1212 CNL

Decode

Destination Runways

ID Width Length Bearing (true) Bearing (mag) Surface Threshold Offset Overrun Length
04 131 ft / 40 m 7,553 ft / 2,302 m 43.07° 43.25° Asphalt 0 ft / 0 m 0 ft / 0 m
22 131 ft / 40 m 7,553 ft / 2,302 m 223.08° 223.26° Asphalt 0 ft / 0 m 0 ft / 0 m

Approach Navaids

Runway Type Ident Frequency Range Bearing (true) Bearing (mag) Slope Elevation
22 Localiser OT 109.50 MHz 18 nm / 33 km 223.06° 223.24° - 322 ft / 98 m (AMSL)
22 Glidescope OT 109.50 MHz 10 nm / 19 km 223.07° 223.25° 3.00° 313 ft / 95 m (AMSL)
22 DME OT 109.50 MHz 18 nm / 33 km - - - 354 ft / 108 m (AMSL)

Popular Alternatives